Decoded Metar for LFMU (BEZIERS in FRANCE) (IATA:BZR) | Meteo·Mobile Aviation Weather
aviador You're here:

LFMU Decoded Metar

BEZIERS in FRANCE
Report Time2019-09-17 01:00:00
UTC Time2019-09-17 01:16:06
Flight Rules vfr VFR
Wind280° at 03 kt
W.Decomp.*RWY 27: 3.0 kt HW 0.5 kt RCW
Visibility9999 m
Phenomena:N/A
Clouds:N/A
Expected CloudBase > 1,200 ft AGL from Temp-Dew spread
CeilingNone
Temp17°C (ISA +2)
Dew Point14°C (83% RH)
QNH1016 hPa
Density Alt417 ft
Elevation56 ft
Report Wrong Elevation
Raw Report
LFMU 170100Z AUTO 28003KT CAVOK 17/14 Q1016=

Extra information for LFMU:More info

Metar Taf Metar & Taf Last 4 Metars F.Rules Stats Wind Profile Meteogram Temp Stats Airport Information Weather charts Add Link Nearby VenuesMetar ALERT Operation Metar Decoded Social comments